Etusivu
METAR-TAF:

METAR-TAF

Lentoasemat :

Tukholma-Arlanda, Ruotsi

Arlandan kansainvälinen lentoasema

Leveyspiiri: 59-39N, Pituuspiiri: 017-57E, korkeus merenpinnasta: 38 m

Tämänhetkinen sää

Tämä raportti tehtiin 23 minuuttia sitten, kello 18.20 UTC
Tuuli 7 kn idästä
Lämpötila 18°C
Kosteus 64%
Ilmanpaine 1020 hPa
Näkyvyys 10 km tai enemmän
ei pilviä alle 1500 m:ssä eikä cumulonimbus-pilviä

METAR: ESSA 221820Z 10007KT CAVOK 18/11 Q1020 NOSIG

Aika: 20:43 (18:43 UTC)

Sääennuste

Tämä raportti tehtiin 1 tunti ja 13 minuuttia sitten, kello 17.30 UTC
Ennuste voimassa 22. päivästä klo 18 UTC - 23. päivään klo 18 UTC
Tuuli 6 kn idästä
Näkyvyys 10 km tai enemmän
ei pilviä alle 1500 m:ssä eikä cumulonimbus-pilviä
Todennäköisyys 40%
23. päivästä klo 03 UTC - 23. päivään klo 09 UTC
Hajanaisia pilviä 5000 ft:n korkeudessa, Cumulonimbus.
vesikuuroja

TAF: ESSA 221730Z 2218/2318 10006KT CAVOK PROB40 2303/2309 SHRA SCT050CB

Säähavainnot ja -ennusteet yli 4000 lentoasemalta (METAR- ja TAF-raportit).

Käytössä olevat sääasemat on merkitty karttaan keltaisilla ja punaisilla pisteillä.

Aseta hiiri pisteen päälle nähdäksesi sääaseman nimen.

Klikkaa sitten nähdäksesi säähavainnot ja -ennusteet.

Kartan vaihtaminen: klikkaa mustalla rastilla varustettuja vihreitä pisteitä, niin voit zoomata sisään; viivalla varustettua vihreää pistettä, niin voit zoomata ulos tai vihreitä nuolia, niin pääset viereisille kartoille.


METAR-TAF: